createdAt,value
2018-08-06T00:00:38.934Z,6.35
2018-08-06T00:03:08.077Z,6.73
2018-08-06T00:05:37.886Z,7.00
2018-08-06T00:08:07.280Z,6.47
2018-08-06T00:10:36.272Z,6.23
2018-08-06T00:13:05.335Z,6.30
2018-08-06T00:15:34.347Z,6.03
2018-08-06T00:18:03.118Z,5.60
2018-08-06T00:20:31.971Z,6.53
2018-08-06T00:23:00.932Z,5.70
2018-08-06T00:25:30.671Z,6.40
2018-08-06T00:27:59.404Z,7.47
2018-08-06T00:30:28.280Z,7.78
2018-08-06T00:32:57.094Z,8.78
2018-08-06T00:35:25.735Z,7.65
2018-08-06T00:37:54.728Z,6.95
2018-08-06T00:40:23.899Z,6.50
2018-08-06T00:42:53.019Z,7.12
2018-08-06T00:45:22.423Z,7.33
2018-08-06T00:47:51.192Z,7.67
2018-08-06T00:50:20.045Z,7.97
2018-08-06T00:52:49.056Z,6.78
2018-08-06T00:55:19.212Z,8.30
2018-08-06T00:57:47.963Z,7.87
2018-08-06T01:00:17.794Z,8.18
2018-08-06T01:02:46.783Z,6.97
2018-08-06T01:05:16.183Z,8.50
2018-08-06T01:07:46.027Z,7.20
2018-08-06T01:10:16.040Z,7.30
2018-08-06T01:12:45.038Z,6.53
2018-08-06T01:15:18.071Z,7.85
2018-08-06T01:17:47.050Z,6.62
2018-08-06T01:20:16.124Z,8.73
2018-08-06T01:22:45.604Z,7.83
2018-08-06T01:25:14.998Z,8.10
2018-08-06T01:27:43.979Z,8.10
2018-08-06T01:30:14.224Z,8.65
2018-08-06T01:32:44.079Z,8.48
2018-08-06T01:35:13.083Z,7.90
2018-08-06T01:37:42.059Z,8.75
2018-08-06T01:40:14.460Z,7.47
2018-08-06T01:42:44.256Z,7.80
2018-08-06T01:45:14.515Z,8.65
2018-08-06T01:47:43.528Z,8.40
2018-08-06T01:50:13.652Z,7.73
2018-08-06T01:52:43.110Z,11.47
2018-08-06T01:55:12.074Z,11.37
2018-08-06T01:57:40.859Z,10.18
2018-08-06T02:00:13.965Z,10.28
2018-08-06T02:02:42.994Z,10.77
2018-08-06T02:05:12.179Z,9.98
2018-08-06T02:07:41.462Z,9.78
2018-08-06T02:10:12.531Z,10.48
2018-08-06T02:12:42.087Z,10.55
2018-08-06T02:15:11.810Z,9.08
2018-08-06T02:17:40.847Z,11.28
2018-08-06T02:20:12.830Z,10.13
2018-08-06T02:22:42.072Z,10.63
2018-08-06T02:25:11.286Z,11.03
2018-08-06T02:27:40.416Z,10.87
2018-08-06T02:30:11.215Z,11.80
2018-08-06T02:32:40.400Z,11.20
2018-08-06T02:35:11.412Z,14.33
2018-08-06T02:37:41.148Z,12.10
2018-08-06T02:40:20.242Z,13.43
2018-08-06T02:42:49.457Z,13.43
2018-08-06T02:45:18.767Z,11.80
2018-08-06T02:47:47.652Z,11.60
2018-08-06T02:50:17.183Z,11.30
2018-08-06T02:52:46.171Z,10.07
2018-08-06T02:55:16.095Z,12.07
2018-08-06T02:57:45.103Z,9.40
2018-08-06T03:00:15.735Z,13.60
2018-08-06T03:02:45.793Z,12.17
2018-08-06T03:05:17.355Z,13.20
2018-08-06T03:07:46.521Z,12.57
2018-08-06T03:10:15.573Z,12.23
2018-08-06T03:12:45.683Z,11.37
2018-08-06T03:15:15.132Z,12.73
2018-08-06T03:17:44.490Z,11.20
2018-08-06T03:20:13.932Z,9.78
2018-08-06T03:22:42.936Z,13.40
2018-08-06T03:25:13.123Z,12.60
2018-08-06T03:27:42.647Z,13.50
2018-08-06T03:30:13.676Z,12.33
2018-08-06T03:32:43.204Z,11.97
2018-08-06T03:35:12.640Z,11.33
2018-08-06T03:37:41.760Z,14.07
2018-08-06T03:40:10.837Z,10.60
2018-08-06T03:42:39.766Z,13.43
2018-08-06T03:45:10.387Z,15.07
2018-08-06T03:47:40.020Z,12.40
2018-08-06T03:50:10.266Z,12.73
2018-08-06T03:52:39.025Z,11.10
2018-08-06T03:55:09.037Z,10.60
2018-08-06T03:57:38.255Z,10.37
2018-08-06T04:00:09.411Z,10.50
2018-08-06T04:02:38.555Z,10.03
2018-08-06T04:05:08.147Z,11.33
2018-08-06T04:07:37.209Z,12.53
2018-08-06T04:10:07.131Z,11.80
2018-08-06T04:12:36.198Z,10.80
2018-08-06T04:15:06.320Z,13.43
2018-08-06T04:17:35.303Z,12.27
2018-08-06T04:20:05.414Z,12.40
2018-08-06T04:22:34.414Z,13.97
2018-08-06T04:25:03.663Z,13.40
2018-08-06T04:27:32.652Z,13.70
2018-08-06T04:30:01.639Z,12.85
2018-08-06T04:32:30.663Z,14.00
2018-08-06T04:35:00.487Z,12.98
2018-08-06T04:37:29.516Z,11.80
2018-08-06T04:39:58.312Z,11.75
2018-08-06T04:42:27.267Z,12.43
2018-08-06T04:44:56.291Z,12.25
2018-08-06T04:47:25.569Z,13.20
2018-08-06T04:49:54.696Z,13.83
2018-08-06T04:52:24.021Z,14.25
2018-08-06T04:54:53.071Z,12.53
2018-08-06T04:57:22.177Z,13.00
2018-08-06T04:59:51.868Z,12.88
2018-08-06T05:02:20.843Z,11.93
2018-08-06T05:04:49.864Z,12.70
2018-08-06T05:07:18.889Z,11.30
2018-08-06T05:09:47.625Z,12.13
2018-08-06T05:12:16.508Z,10.55
2018-08-06T05:14:45.340Z,10.28
2018-08-06T05:17:14.216Z,9.15
2018-08-06T05:19:43.259Z,7.75
2018-08-06T05:22:12.244Z,6.97
2018-08-06T05:24:41.307Z,6.33
2018-08-06T05:27:10.004Z,7.30
2018-08-06T05:29:38.844Z,6.35
2018-08-06T05:32:07.856Z,6.00
2018-08-06T05:34:36.843Z,5.47
2018-08-06T05:37:05.839Z,5.55
2018-08-06T05:39:34.864Z,5.33
2018-08-06T05:42:03.879Z,5.50
2018-08-06T05:44:32.842Z,6.87
2018-08-06T05:47:01.851Z,5.78
2018-08-06T05:49:30.852Z,6.30
2018-08-06T05:51:59.827Z,5.35
2018-08-06T05:54:28.894Z,5.83
2018-08-06T05:56:57.948Z,5.60
2018-08-06T05:59:27.061Z,5.53
2018-08-06T06:01:56.417Z,5.80
2018-08-06T06:04:25.556Z,5.45
2018-08-06T06:06:54.849Z,6.03
2018-08-06T06:09:23.619Z,6.00
2018-08-06T06:11:52.565Z,5.17
2018-08-06T06:14:21.528Z,4.83
2018-08-06T06:16:50.546Z,6.45
2018-08-06T06:19:19.576Z,6.13
2018-08-06T06:21:48.583Z,6.67
2018-08-06T06:24:17.595Z,5.95
2018-08-06T06:26:46.648Z,6.40
2018-08-06T06:29:15.694Z,5.62
2018-08-06T06:31:44.431Z,5.93
2018-08-06T06:34:13.360Z,6.50
2018-08-06T06:36:42.340Z,5.40
2018-08-06T06:39:12.815Z,6.30
2018-08-06T06:41:41.829Z,5.33
2018-08-06T06:44:11.721Z,5.42
2018-08-06T06:46:40.684Z,5.60
2018-08-06T06:49:10.294Z,5.47
2018-08-06T06:51:39.240Z,5.92
2018-08-06T06:54:10.127Z,5.42
2018-08-06T06:56:38.869Z,5.90
2018-08-06T06:59:07.787Z,5.30
2018-08-06T07:01:36.867Z,6.70
2018-08-06T07:04:05.831Z,4.05
2018-08-06T07:06:34.805Z,5.80
2018-08-06T07:09:05.555Z,5.35
2018-08-06T07:11:34.507Z,5.42
2018-08-06T07:14:03.562Z,4.03
2018-08-06T07:16:32.512Z,5.08
2018-08-06T07:19:01.550Z,5.78
2018-08-06T07:21:30.583Z,5.28
2018-08-06T07:23:59.298Z,4.35
2018-08-06T07:26:27.948Z,4.00
2018-08-06T07:28:56.862Z,3.62
2018-08-06T07:31:25.927Z,3.02
2018-08-06T07:33:55.012Z,4.25
2018-08-06T07:36:24.177Z,3.25
2018-08-06T07:38:53.373Z,3.35
2018-08-06T07:41:22.505Z,3.45
2018-08-06T07:43:51.608Z,3.60
2018-08-06T07:46:20.323Z,3.72
2018-08-06T07:48:48.940Z,2.85
2018-08-06T07:51:17.812Z,3.65
2018-08-06T07:53:46.834Z,2.55
2018-08-06T07:56:15.807Z,3.50
2018-08-06T07:58:44.820Z,3.02
2018-08-06T08:01:13.779Z,3.67
2018-08-06T08:03:42.748Z,2.85
2018-08-06T08:06:11.867Z,2.92
2018-08-06T08:08:40.895Z,2.95
2018-08-06T08:11:09.924Z,2.40
2018-08-06T08:13:38.709Z,2.90
2018-08-06T08:16:07.580Z,2.60
2018-08-06T08:18:36.583Z,5.37
2018-08-06T08:21:05.635Z,3.27
2018-08-06T08:23:34.644Z,3.98
2018-08-06T08:26:04.432Z,3.62
2018-08-06T08:28:33.424Z,3.22
2018-08-06T08:31:02.459Z,3.77
2018-08-06T08:33:31.408Z,2.70
2018-08-06T08:36:01.294Z,4.22
2018-08-06T08:38:30.256Z,2.98
2018-08-06T08:40:59.255Z,5.00
2018-08-06T08:43:28.308Z,3.52
2018-08-06T08:45:57.475Z,4.37
2018-08-06T08:48:26.479Z,2.70
2018-08-06T08:50:55.611Z,4.22
2018-08-06T08:53:24.455Z,3.30
2018-08-06T08:55:53.339Z,2.95
2018-08-06T08:58:22.624Z,3.27
2018-08-06T09:00:51.338Z,2.92
2018-08-06T09:03:19.991Z,4.00
2018-08-06T09:05:48.876Z,2.72
2018-08-06T09:08:17.884Z,4.30
2018-08-06T09:10:46.872Z,3.08
2018-08-06T09:13:15.880Z,3.87
2018-08-06T09:15:44.877Z,2.87
2018-08-06T09:18:13.867Z,2.80
2018-08-06T09:20:42.862Z,3.70
2018-08-06T09:23:11.880Z,2.70
2018-08-06T09:25:40.881Z,3.33
2018-08-06T09:28:10.227Z,2.90
2018-08-06T09:30:39.215Z,3.98
2018-08-06T09:33:08.233Z,4.03
2018-08-06T09:35:37.219Z,4.05
2018-08-06T09:38:06.396Z,2.75
2018-08-06T09:40:35.394Z,3.10
2018-08-06T09:43:04.409Z,4.17
2018-08-06T09:45:33.444Z,3.08
2018-08-06T09:48:02.418Z,4.00
2018-08-06T09:50:31.433Z,2.20
2018-08-06T09:53:00.493Z,4.72
2018-08-06T09:55:29.646Z,2.92
2018-08-06T09:57:58.678Z,3.58
2018-08-06T10:00:33.114Z,2.40
2018-08-06T10:03:02.542Z,4.47
2018-08-06T10:05:31.438Z,2.52
2018-08-06T10:08:00.395Z,4.40
2018-08-06T10:10:29.472Z,2.67
2018-08-06T10:12:58.621Z,3.70
2018-08-06T10:15:27.737Z,3.90
2018-08-06T10:17:57.091Z,2.72
2018-08-06T10:20:26.801Z,4.20
2018-08-06T10:22:55.890Z,3.35
2018-08-06T10:25:24.958Z,3.27
2018-08-06T10:27:54.134Z,2.50
2018-08-06T10:30:23.720Z,3.33
2018-08-06T10:32:52.659Z,2.72
2018-08-06T10:35:21.810Z,3.17
2018-08-06T10:37:50.992Z,2.90
2018-08-06T10:40:22.373Z,3.37
2018-08-06T10:42:51.583Z,3.15
2018-08-06T10:45:24.929Z,3.15
2018-08-06T10:47:54.315Z,3.12
2018-08-06T10:50:23.115Z,2.92
2018-08-06T10:52:51.967Z,3.80
2018-08-06T10:55:21.092Z,2.50
2018-08-06T10:57:50.106Z,3.62
2018-08-06T11:00:21.387Z,2.12
2018-08-06T11:02:50.550Z,3.23
2018-08-06T11:05:19.926Z,2.60
2018-08-06T11:07:49.644Z,3.08
2018-08-06T11:10:19.823Z,2.37
2018-08-06T11:12:48.873Z,3.37
2018-08-06T11:15:19.137Z,3.02
2018-08-06T11:17:48.519Z,3.63
2018-08-06T11:20:18.154Z,2.67
2018-08-06T11:22:47.128Z,3.30
2018-08-06T11:25:17.906Z,3.22
2018-08-06T11:27:47.020Z,2.87
2018-08-06T11:30:18.835Z,3.90
2018-08-06T11:32:48.183Z,2.87
2018-08-06T11:35:16.975Z,4.37
2018-08-06T11:37:45.884Z,3.02
2018-08-06T11:40:15.995Z,3.42
2018-08-06T11:42:45.658Z,2.57
2018-08-06T11:45:17.217Z,3.47
2018-08-06T11:47:46.164Z,2.77
2018-08-06T11:50:14.882Z,3.87
2018-08-06T11:52:43.914Z,2.70
2018-08-06T11:55:12.894Z,3.42
2018-08-06T11:57:41.889Z,2.52
2018-08-06T12:00:16.132Z,2.75
2018-08-06T12:02:45.175Z,2.70
2018-08-06T12:05:14.289Z,3.10
2018-08-06T12:07:43.291Z,2.75
2018-08-06T12:10:14.401Z,2.65
2018-08-06T12:12:44.101Z,2.80
2018-08-06T12:15:13.158Z,2.80
2018-08-06T12:17:42.451Z,2.87
2018-08-06T12:20:13.868Z,2.80
2018-08-06T12:22:43.980Z,3.10
2018-08-06T12:25:13.787Z,2.40
2018-08-06T12:27:43.185Z,2.60
2018-08-06T12:30:14.829Z,2.40
2018-08-06T12:32:44.492Z,3.00
2018-08-06T12:35:13.903Z,2.30
2018-08-06T12:37:43.435Z,2.62
2018-08-06T12:40:13.868Z,2.15
2018-08-06T12:42:43.077Z,2.98
2018-08-06T12:45:12.987Z,2.52
2018-08-06T12:47:42.155Z,2.90
2018-08-06T12:50:12.039Z,2.40
2018-08-06T12:52:41.632Z,2.92
2018-08-06T12:55:12.161Z,2.90
2018-08-06T12:57:41.908Z,2.35
2018-08-06T13:00:16.867Z,2.75
2018-08-06T13:02:47.203Z,2.50
2018-08-06T13:05:16.163Z,2.37
2018-08-06T13:07:44.992Z,2.22
2018-08-06T13:10:14.124Z,2.98
2018-08-06T13:12:42.949Z,2.15
2018-08-06T13:15:13.047Z,2.40
2018-08-06T13:17:41.999Z,2.12
2018-08-06T13:20:11.312Z,2.42
2018-08-06T13:22:40.291Z,2.00
2018-08-06T13:25:11.099Z,2.33
2018-08-06T13:27:39.805Z,1.90
2018-08-06T13:30:10.209Z,2.47
2018-08-06T13:32:38.953Z,2.08
2018-08-06T13:35:08.187Z,2.15
2018-08-06T13:37:37.267Z,2.27
2018-08-06T13:40:06.976Z,2.37
2018-08-06T13:42:35.987Z,2.30
2018-08-06T13:45:06.723Z,2.00
2018-08-06T13:47:35.961Z,2.40
2018-08-06T13:50:05.271Z,1.90
2018-08-06T13:52:34.273Z,2.75
2018-08-06T13:55:03.356Z,1.95
2018-08-06T13:57:32.399Z,2.35
2018-08-06T14:00:01.500Z,2.00
2018-08-06T14:02:30.531Z,2.92
2018-08-06T14:04:59.552Z,2.02
2018-08-06T14:07:28.534Z,1.85
2018-08-06T14:09:57.557Z,2.50
2018-08-06T14:12:26.291Z,1.82
2018-08-06T14:14:55.254Z,2.50
2018-08-06T14:17:25.202Z,1.82
2018-08-06T14:19:54.228Z,2.42
2018-08-06T14:22:23.506Z,1.90
2018-08-06T14:24:52.575Z,2.50
2018-08-06T14:27:21.697Z,2.33
2018-08-06T14:29:50.826Z,1.85
2018-08-06T14:32:19.824Z,2.50
2018-08-06T14:34:48.967Z,2.07
2018-08-06T14:37:18.687Z,2.08
2018-08-06T14:39:47.635Z,1.70
2018-08-06T14:42:16.643Z,2.52
2018-08-06T14:44:45.658Z,1.85
2018-08-06T14:47:14.652Z,2.30
2018-08-06T14:49:43.669Z,1.70
2018-08-06T14:52:12.763Z,2.10
2018-08-06T14:54:41.792Z,2.25
2018-08-06T14:57:10.751Z,1.72
2018-08-06T14:59:39.483Z,2.02
2018-08-06T15:02:08.726Z,1.65
2018-08-06T15:04:37.704Z,2.00
2018-08-06T15:07:06.756Z,1.52
2018-08-06T15:09:35.729Z,1.87
2018-08-06T15:12:04.840Z,1.70
2018-08-06T15:14:33.843Z,2.27
2018-08-06T15:17:02.893Z,1.70
2018-08-06T15:19:31.707Z,1.52
2018-08-06T15:22:00.573Z,2.30
2018-08-06T15:24:29.556Z,2.27
2018-08-06T15:26:58.451Z,1.93
2018-08-06T15:29:27.559Z,1.62
2018-08-06T15:31:56.621Z,2.40
2018-08-06T15:34:25.832Z,1.77
2018-08-06T15:36:55.016Z,2.00
2018-08-06T15:39:24.221Z,1.30
2018-08-06T15:41:54.538Z,1.75
2018-08-06T15:44:23.769Z,1.87
2018-08-06T15:46:52.895Z,1.35
2018-08-06T15:49:21.884Z,2.15
2018-08-06T15:51:50.914Z,1.40
2018-08-06T15:54:20.015Z,1.82
2018-08-06T15:56:49.088Z,1.65
2018-08-06T15:59:18.087Z,2.56
2018-08-06T16:01:47.103Z,1.67
2018-08-06T16:04:16.167Z,2.02
2018-08-06T16:06:45.195Z,1.57
2018-08-06T16:09:14.567Z,1.45
2018-08-06T16:11:43.553Z,2.00
2018-08-06T16:14:12.528Z,1.30
2018-08-06T16:16:41.547Z,2.90
2018-08-06T16:19:11.165Z,1.90
2018-08-06T16:21:40.024Z,1.87
2018-08-06T16:24:09.023Z,1.90
2018-08-06T16:26:38.205Z,2.17
2018-08-06T16:29:07.257Z,1.70
2018-08-06T16:31:36.251Z,2.15
2018-08-06T16:34:05.259Z,2.35
2018-08-06T16:36:34.203Z,1.87
2018-08-06T16:39:03.591Z,2.30
2018-08-06T16:41:32.603Z,1.87
2018-08-06T16:44:01.611Z,2.65
2018-08-06T16:46:30.632Z,2.02
2018-08-06T16:48:59.579Z,2.12
2018-08-06T16:51:28.615Z,1.52
2018-08-06T16:53:57.610Z,2.03
2018-08-06T16:56:26.803Z,2.10
2018-08-06T16:58:56.299Z,2.23
2018-08-06T17:01:25.329Z,2.15
2018-08-06T17:03:54.403Z,2.10
2018-08-06T17:06:23.636Z,2.33
2018-08-06T17:08:52.689Z,1.98
2018-08-06T17:11:21.710Z,2.35
2018-08-06T17:13:50.705Z,1.70
2018-08-06T17:16:19.938Z,2.12
2018-08-06T17:18:48.933Z,2.10
2018-08-06T17:21:18.634Z,2.33
2018-08-06T17:23:48.004Z,2.67
2018-08-06T17:26:17.123Z,1.80
2018-08-06T17:28:46.156Z,2.27
2018-08-06T17:31:14.940Z,1.90
2018-08-06T17:33:43.812Z,2.30
2018-08-06T17:36:12.799Z,2.02
2018-08-06T17:38:41.786Z,2.77
2018-08-06T17:41:10.546Z,1.65
2018-08-06T17:43:39.408Z,2.10
2018-08-06T17:46:08.528Z,2.30
2018-08-06T17:48:38.367Z,1.77
2018-08-06T17:51:08.356Z,2.67
2018-08-06T17:53:37.188Z,2.12
2018-08-06T17:56:06.391Z,2.40
2018-08-06T17:58:35.432Z,2.27
2018-08-06T18:01:04.476Z,2.65
2018-08-06T18:03:33.560Z,1.95
2018-08-06T18:06:02.312Z,2.60
2018-08-06T18:08:31.203Z,1.90
2018-08-06T18:11:00.392Z,2.92
2018-08-06T18:13:29.430Z,2.87
2018-08-06T18:15:58.516Z,2.12
2018-08-06T18:18:27.673Z,3.00
2018-08-06T18:20:56.995Z,2.50
2018-08-06T18:23:26.060Z,3.08
2018-08-06T18:25:55.168Z,2.70
2018-08-06T18:28:24.309Z,3.60
2018-08-06T18:30:53.088Z,3.08
2018-08-06T18:33:22.069Z,2.98
2018-08-06T18:35:51.061Z,2.92
2018-08-06T18:38:20.083Z,2.93
2018-08-06T18:40:49.112Z,3.20
2018-08-06T18:43:18.148Z,2.58
2018-08-06T18:45:46.867Z,3.67
2018-08-06T18:48:15.861Z,2.90
2018-08-06T18:50:44.865Z,3.65
2018-08-06T18:53:13.904Z,3.52
2018-08-06T18:55:42.920Z,3.90
2018-08-06T18:58:11.724Z,3.47
2018-08-06T19:00:40.644Z,3.55
2018-08-06T19:03:09.666Z,4.50
2018-08-06T19:05:38.703Z,2.95
2018-08-06T19:08:07.744Z,3.83
2018-08-06T19:10:36.545Z,3.00
2018-08-06T19:13:11.387Z,4.30
2018-08-06T19:15:40.432Z,3.20
2018-08-06T19:18:14.950Z,3.80
2018-08-06T19:20:43.979Z,2.75
2018-08-06T19:23:13.089Z,4.00
2018-08-06T19:25:42.164Z,2.95
2018-08-06T19:28:11.199Z,4.83
2018-08-06T19:30:45.626Z,3.50
2018-08-06T19:33:14.946Z,4.20
2018-08-06T19:35:43.967Z,2.72
2018-08-06T19:38:13.887Z,3.77
2018-08-06T19:40:42.947Z,3.50
2018-08-06T19:43:17.662Z,3.75
2018-08-06T19:45:46.701Z,2.58
2018-08-06T19:48:15.775Z,3.65
2018-08-06T19:50:45.156Z,3.17
2018-08-06T19:53:13.955Z,3.70
2018-08-06T19:55:48.457Z,3.50
2018-08-06T19:58:17.615Z,3.75
2018-08-06T20:00:47.943Z,3.05
2018-08-06T20:03:16.846Z,3.35
2018-08-06T20:05:47.465Z,3.33
2018-08-06T20:08:16.494Z,3.00
2018-08-06T20:10:45.591Z,3.70
2018-08-06T20:13:14.357Z,2.87
2018-08-06T20:15:43.654Z,3.70
2018-08-06T20:18:12.675Z,2.98
2018-08-06T20:20:41.730Z,3.83
2018-08-06T20:23:10.771Z,3.47
2018-08-06T20:25:39.811Z,3.67
2018-08-06T20:28:08.664Z,3.20
2018-08-06T20:30:37.568Z,3.00
2018-08-06T20:33:07.085Z,4.10
2018-08-06T20:35:36.222Z,3.25
2018-08-06T20:38:05.599Z,3.45
2018-08-06T20:40:34.800Z,3.70
2018-08-06T20:43:03.860Z,3.87
2018-08-06T20:45:32.663Z,3.40
2018-08-06T20:48:01.636Z,3.90
2018-08-06T20:50:30.942Z,3.52
2018-08-06T20:52:59.982Z,4.12
2018-08-06T20:55:29.065Z,3.33
2018-08-06T20:57:58.124Z,3.08
2018-08-06T21:00:33.736Z,4.13
2018-08-06T21:03:02.618Z,3.77
2018-08-06T21:05:31.422Z,3.95
2018-08-06T21:08:00.483Z,3.15
2018-08-06T21:10:29.544Z,3.92
2018-08-06T21:12:58.360Z,3.80
2018-08-06T21:15:27.080Z,4.28
2018-08-06T21:17:56.345Z,3.00
2018-08-06T21:20:25.168Z,4.08
2018-08-06T21:22:53.950Z,3.30
2018-08-06T21:25:22.886Z,3.17
2018-08-06T21:27:51.935Z,3.60
2018-08-06T21:30:22.028Z,2.77
2018-08-06T21:32:55.060Z,4.05
2018-08-06T21:35:25.397Z,2.58
2018-08-06T21:37:55.235Z,3.12
2018-08-06T21:40:24.901Z,3.00
2018-08-06T21:42:53.872Z,3.92
2018-08-06T21:45:22.912Z,2.72
2018-08-06T21:47:52.023Z,4.03
2018-08-06T21:50:21.139Z,2.70
2018-08-06T21:52:50.200Z,4.10
2018-08-06T21:55:19.953Z,2.80
2018-08-06T21:57:48.963Z,3.50
2018-08-06T22:00:34.244Z,2.62
2018-08-06T22:03:04.682Z,3.62
2018-08-06T22:05:33.775Z,3.17
2018-08-06T22:08:02.997Z,3.33
2018-08-06T22:10:32.216Z,2.95
2018-08-06T22:13:01.227Z,4.45
2018-08-06T22:15:30.244Z,2.62
2018-08-06T22:17:59.247Z,4.28
2018-08-06T22:20:28.113Z,2.70
2018-08-06T22:22:57.055Z,4.58
2018-08-06T22:25:26.184Z,3.23
2018-08-06T22:27:55.266Z,3.55
2018-08-06T22:30:24.060Z,3.17
2018-08-06T22:32:53.223Z,2.67
2018-08-06T22:35:22.252Z,3.45
2018-08-06T22:37:51.249Z,2.77
2018-08-06T22:40:20.241Z,4.00
2018-08-06T22:42:49.255Z,2.63
2018-08-06T22:45:18.268Z,3.75
2018-08-06T22:47:47.227Z,2.62
2018-08-06T22:50:16.198Z,3.15
2018-08-06T22:52:45.168Z,3.67
2018-08-06T22:55:15.075Z,3.00
2018-08-06T22:57:44.583Z,3.72
2018-08-06T23:00:15.247Z,3.05
2018-08-06T23:02:45.344Z,3.58
2018-08-06T23:05:15.754Z,2.72
2018-08-06T23:07:44.624Z,3.70
2018-08-06T23:10:14.925Z,2.50
2018-08-06T23:12:43.995Z,3.72
2018-08-06T23:15:14.523Z,2.30
2018-08-06T23:17:44.344Z,3.17
2018-08-06T23:20:13.325Z,2.58
2018-08-06T23:22:42.277Z,3.33
2018-08-06T23:25:11.267Z,3.20
2018-08-06T23:27:40.262Z,3.45
2018-08-06T23:30:11.691Z,3.52
2018-08-06T23:32:40.748Z,3.23
2018-08-06T23:35:10.946Z,3.22
2018-08-06T23:37:41.163Z,2.55
2018-08-06T23:40:11.267Z,3.27
2018-08-06T23:42:40.796Z,2.67
2018-08-06T23:45:11.031Z,3.65
2018-08-06T23:47:43.466Z,2.35
2018-08-06T23:50:13.932Z,3.72
2018-08-06T23:52:45.017Z,2.55
2018-08-06T23:55:14.777Z,3.80
2018-08-06T23:57:43.584Z,2.47
